Time;durP1;ratioP1;P1;durP2;ratioP2;P2;SDS_P1;SDS_P2;PMS_P1;PMS_P2;Temp;Humidity;BMP_temperature;BMP_pressure;BME280_temperature;BME280_humidity;BME280_pressure;Samples;Min_cycle;Max_cycle;Signal;HPM_P1;HPM_P2
2022/07/04 00:02:15;;;;;;;6.18;1.48;;;16.10;85.40;;;;;;5014297;28;20084;-83
2022/07/04 00:04:40;;;;;;;2.30;0.98;;;16.00;85.50;;;;;;5012865;28;20030;-83
2022/07/04 00:07:06;;;;;;;3.55;1.30;;;16.00;85.70;;;;;;5029325;28;20040;-83
2022/07/04 00:09:32;;;;;;;4.78;1.30;;;16.00;85.80;;;;;;5012864;28;20029;-83
2022/07/04 00:11:57;;;;;;;6.53;1.55;;;16.00;86.00;;;;;;5012717;28;20022;-84
2022/07/04 00:14:23;;;;;;;6.18;1.33;;;15.90;86.20;;;;;;5029215;28;20026;-83
2022/07/04 00:16:48;;;;;;;5.95;1.45;;;15.90;86.40;;;;;;5012837;28;20030;-83
2022/07/04 00:19:14;;;;;;;8.80;1.52;;;15.90;86.60;;;;;;5028109;28;20084;-83
2022/07/04 00:21:40;;;;;;;8.27;1.45;;;15.90;86.80;;;;;;5012533;28;20117;-83
2022/07/04 00:24:05;;;;;;;4.85;1.70;;;15.80;86.90;;;;;;5029109;28;20111;-84
2022/07/04 00:26:31;;;;;;;6.95;1.52;;;15.80;87.20;;;;;;5013770;28;20446;-84
2022/07/04 00:28:57;;;;;;;5.22;1.33;;;15.80;87.40;;;;;;5012460;28;20022;-84
2022/07/04 00:31:22;;;;;;;3.75;0.98;;;15.80;87.60;;;;;;5013745;28;20087;-83
2022/07/04 00:33:48;;;;;;;8.88;1.85;;;15.80;87.80;;;;;;4996013;28;20072;-83
2022/07/04 00:36:13;;;;;;;5.07;1.30;;;15.70;87.90;;;;;;5028884;28;20052;-83
2022/07/04 00:38:39;;;;;;;5.25;1.38;;;15.80;88.10;;;;;;4995910;28;20045;-83
2022/07/04 00:41:05;;;;;;;4.68;1.20;;;15.70;88.10;;;;;;5012210;28;20121;-83
2022/07/04 00:43:31;;;;;;;7.95;1.23;;;15.70;88.30;;;;;;4996009;28;20030;-83
2022/07/04 00:45:56;;;;;;;5.70;1.90;;;15.70;88.50;;;;;;5012267;28;20608;-84
2022/07/04 00:48:22;;;;;;;5.32;1.20;;;15.60;88.80;;;;;;5028752;28;20018;-82
2022/07/04 00:50:48;;;;;;;6.50;1.70;;;15.70;89.10;;;;;;5013499;28;20026;-82
2022/07/04 00:53:14;;;;;;;2.97;1.20;;;15.60;89.20;;;;;;5012349;28;20018;-82
2022/07/04 00:55:41;;;;;;;4.28;1.45;;;15.60;89.40;;;;;;5013584;28;20080;-82
2022/07/04 00:58:07;;;;;;;5.80;1.58;;;15.60;90.10;;;;;;5028554;28;20148;-82
2022/07/04 01:00:33;;;;;;;4.30;1.23;;;15.60;90.00;;;;;;5012055;28;20417;-81
2022/07/04 01:02:59;;;;;;;3.60;1.23;;;15.50;90.10;;;;;;5012175;28;20541;-82
2022/07/04 01:05:25;;;;;;;5.47;1.58;;;15.50;90.20;;;;;;5028594;28;20113;-82
2022/07/04 01:07:50;;;;;;;6.05;1.85;;;15.50;90.40;;;;;;5013330;28;20026;-82
2022/07/04 01:10:16;;;;;;;4.75;1.58;;;15.50;90.50;;;;;;5012100;28;20026;-82
2022/07/04 01:12:42;;;;;;;5.78;1.67;;;15.50;90.60;;;;;;5011937;28;20054;-82
2022/07/04 01:15:08;;;;;;;3.60;1.42;;;15.40;90.70;;;;;;5012096;28;20062;-82
2022/07/04 01:17:35;;;;;;;3.65;1.30;;;15.40;90.80;;;;;;5012001;28;20026;-82
2022/07/04 01:20:01;;;;;;;4.65;1.45;;;15.40;90.90;;;;;;4995806;28;20446;-82
2022/07/04 01:22:26;;;;;;;5.25;1.88;;;15.40;91.00;;;;;;5013204;28;20030;-82
2022/07/04 01:24:52;;;;;;;7.22;2.00;;;15.30;91.10;;;;;;5011570;28;20460;-82
2022/07/04 01:27:18;;;;;;;6.53;1.70;;;15.30;91.10;;;;;;5013184;28;20058;-82
2022/07/04 01:29:44;;;;;;;7.20;2.17;;;15.30;91.10;;;;;;5028703;28;20113;-82
2022/07/04 01:32:10;;;;;;;3.85;2.03;;;15.30;91.10;;;;;;5016970;28;20108;-81
2022/07/04 01:34:36;;;;;;;3.85;2.13;;;15.30;91.20;;;;;;5017021;28;20041;-82
2022/07/04 01:37:02;;;;;;;7.65;3.05;;;15.30;91.40;;;;;;5015754;28;20052;-82
2022/07/04 01:39:29;;;;;;;5.72;3.08;;;15.20;91.30;;;;;;5016885;28;20502;-82
2022/07/04 01:41:55;;;;;;;6.18;2.40;;;15.20;91.40;;;;;;5016820;28;20536;-82
2022/07/04 01:44:21;;;;;;;4.78;2.67;;;15.10;91.40;;;;;;5016769;28;20386;-82
2022/07/04 01:46:46;;;;;;;5.40;2.83;;;15.10;91.50;;;;;;5016632;28;20038;-81
2022/07/04 01:49:12;;;;;;;5.20;2.33;;;15.10;91.60;;;;;;5031805;28;20470;-82
2022/07/04 01:51:48;;;;;;;9.55;3.25;;;15.00;91.70;;;;;;5016717;28;20053;-82
2022/07/04 01:54:14;;;;;;;8.23;3.35;;;15.00;91.90;;;;;;5015435;28;20034;-82
2022/07/04 01:56:40;;;;;;;5.28;2.47;;;15.00;92.00;;;;;;5032477;28;20029;-82
2022/07/04 01:59:06;;;;;;;6.70;3.20;;;15.00;92.10;;;;;;5033778;28;20029;-82
2022/07/04 02:01:33;;;;;;;6.57;3.28;;;15.00;92.20;;;;;;5035296;28;20056;-82
2022/07/04 02:04:01;;;;;;;6.65;3.70;;;14.90;92.30;;;;;;5033629;28;20499;-82
2022/07/04 02:06:27;;;;;;;10.35;3.67;;;14.90;92.50;;;;;;5034955;28;20037;-81
2022/07/04 02:14:22;;;;;;;5.43;2.70;;;14.90;92.70;;;;;;5036148;28;20091;-82
2022/07/04 02:16:48;;;;;;;6.20;3.03;;;14.80;92.80;;;;;;5034794;28;20033;-81
2022/07/04 02:19:13;;;;;;;7.30;3.20;;;14.80;93.00;;;;;;5035844;28;20543;-83
2022/07/04 02:21:39;;;;;;;7.28;2.80;;;14.80;93.20;;;;;;5035838;28;20025;-81
2022/07/04 02:24:05;;;;;;;6.68;2.90;;;14.70;93.40;;;;;;5034465;28;20072;-81
2022/07/04 02:26:30;;;;;;;4.88;2.55;;;14.70;93.50;;;;;;5035781;28;20038;-81
2022/07/04 02:28:56;;;;;;;5.15;2.08;;;14.70;93.70;;;;;;5018079;28;20021;-82
2022/07/04 02:31:22;;;;;;;9.20;3.30;;;14.70;93.70;;;;;;5034334;28;20033;-81
2022/07/04 02:33:47;;;;;;;7.60;2.80;;;14.70;93.80;;;;;;5035684;28;20028;-82
2022/07/04 02:36:13;;;;;;;4.57;2.65;;;14.60;93.90;;;;;;5034452;28;20029;-81
2022/07/04 02:38:39;;;;;;;4.93;2.20;;;14.60;94.00;;;;;;5017904;28;20429;-82
2022/07/04 02:41:05;;;;;;;5.57;2.05;;;14.60;94.10;;;;;;5035225;28;20112;-82
2022/07/04 02:43:30;;;;;;;5.22;2.22;;;14.60;94.10;;;;;;5017203;28;20030;-82
2022/07/04 02:45:56;;;;;;;4.07;1.42;;;14.60;94.20;;;;;;5035504;28;20397;-81
2022/07/04 02:48:21;;;;;;;3.28;1.75;;;14.60;94.20;;;;;;5035570;28;20029;-81
2022/07/04 02:50:47;;;;;;;4.25;1.83;;;14.60;94.30;;;;;;5035457;28;20460;-82
2022/07/04 02:53:13;;;;;;;4.90;1.85;;;14.60;94.30;;;;;;5035533;28;20057;-81
2022/07/04 02:55:38;;;;;;;5.15;2.03;;;14.50;94.30;;;;;;5034996;28;20057;-82
2022/07/04 02:58:04;;;;;;;6.18;2.28;;;14.50;94.40;;;;;;5035960;28;20033;-82
2022/07/04 03:00:29;;;;;;;9.68;2.38;;;14.40;94.50;;;;;;5017772;28;20080;-81
2022/07/04 03:02:55;;;;;;;5.97;2.83;;;14.40;94.60;;;;;;5034336;28;20041;-82
2022/07/04 03:05:21;;;;;;;8.70;5.10;;;14.40;94.80;;;;;;5034377;28;20481;-82
2022/07/04 03:07:46;;;;;;;8.15;4.78;;;14.40;94.90;;;;;;5036068;28;20108;-82
2022/07/04 03:10:12;;;;;;;9.65;5.65;;;14.40;95.10;;;;;;5007561;28;20021;-82
2022/07/04 03:12:38;;;;;;;14.25;5.18;;;14.30;95.20;;;;;;5022912;28;20049;-82
2022/07/04 03:15:04;;;;;;;10.25;5.90;;;14.30;95.40;;;;;;5036186;28;20558;-81
2022/07/04 03:17:30;;;;;;;11.55;6.63;;;14.30;95.50;;;;;;5034579;28;20482;-82
2022/07/04 03:19:59;;;;;;;10.63;7.35;;;14.30;95.70;;;;;;5035819;28;20045;-82
2022/07/04 03:22:25;;;;;;;14.70;6.97;;;14.30;95.80;;;;;;5020303;28;20037;-82
2022/07/04 03:24:51;;;;;;;12.10;7.28;;;14.30;95.90;;;;;;5042101;28;20115;-82
2022/07/04 03:27:17;;;;;;;13.38;7.25;;;14.30;96.30;;;;;;5042064;28;20473;-81
2022/07/04 03:29:42;;;;;;;11.90;7.43;;;14.20;96.10;;;;;;5035993;28;20460;-82
2022/07/04 03:32:08;;;;;;;11.10;6.35;;;14.30;96.20;;;;;;5034884;28;20080;-82
2022/07/04 03:34:34;;;;;;;10.02;6.97;;;14.20;96.30;;;;;;5034021;28;20032;-82
2022/07/04 03:36:59;;;;;;;13.48;7.20;;;14.20;96.40;;;;;;5035009;28;20025;-82
2022/07/04 03:39:25;;;;;;;12.65;7.15;;;14.20;96.50;;;;;;5036280;28;20113;-82
2022/07/04 03:41:50;;;;;;;12.10;6.93;;;14.20;96.60;;;;;;5035859;28;20540;-81
2022/07/04 03:44:16;;;;;;;11.63;6.68;;;14.20;96.70;;;;;;5034593;28;20029;-82
2022/07/04 03:46:42;;;;;;;14.60;7.45;;;14.20;96.80;;;;;;5034268;28;20037;-82
2022/07/04 03:49:07;;;;;;;13.18;7.47;;;14.20;96.90;;;;;;5033092;28;20393;-82
2022/07/04 03:51:33;;;;;;;10.25;6.57;;;14.20;96.90;;;;;;5034589;28;20033;-82
2022/07/04 03:53:59;;;;;;;7.68;5.30;;;14.30;97.00;;;;;;5033969;28;20087;-82
2022/07/04 03:56:25;;;;;;;10.27;6.38;;;14.30;97.00;;;;;;5032870;28;20029;-82
2022/07/04 03:58:50;;;;;;;9.95;5.97;;;14.10;97.00;;;;;;5032953;28;20033;-82
2022/07/04 04:01:20;;;;;;;12.23;7.55;;;14.20;97.10;;;;;;5016451;28;20041;-82
2022/07/04 04:06:30;;;;;;;13.68;6.20;;;14.20;97.20;;;;;;5034010;28;20461;-81
2022/07/04 04:08:56;;;;;;;10.65;6.10;;;14.20;97.20;;;;;;5032649;28;20053;-82
2022/07/04 04:11:22;;;;;;;8.50;5.60;;;14.30;97.20;;;;;;5016399;28;20061;-81
2022/07/04 04:13:48;;;;;;;8.27;5.45;;;14.20;97.20;;;;;;5016451;28;20025;-82
2022/07/04 04:16:14;;;;;;;7.85;5.68;;;14.30;97.20;;;;;;5032384;28;20533;-82
2022/07/04 04:18:39;;;;;;;10.95;5.72;;;14.30;97.30;;;;;;4999684;28;20029;-82
2022/07/04 04:21:05;;;;;;;8.15;4.90;;;14.20;97.30;;;;;;5016099;28;20036;-82
2022/07/04 04:23:32;;;;;;;12.45;5.78;;;14.30;97.40;;;;;;5032444;28;20116;-81
2022/07/04 04:25:57;;;;;;;8.15;5.13;;;14.20;97.30;;;;;;5032419;28;20405;-82
2022/07/04 04:28:23;;;;;;;8.50;4.32;;;14.30;97.40;;;;;;5033620;28;20112;-82
2022/07/04 04:30:50;;;;;;;9.50;5.00;;;14.30;97.40;;;;;;5032358;28;20104;-82
2022/07/04 04:33:16;;;;;;;7.70;4.00;;;14.30;97.60;;;;;;5016036;28;20055;-81
2022/07/04 04:35:42;;;;;;;8.95;5.00;;;14.40;97.70;;;;;;5032618;28;20041;-82
2022/07/04 04:38:07;;;;;;;8.48;4.65;;;14.40;97.30;;;;;;5016131;28;20128;-82
2022/07/04 04:40:33;;;;;;;10.10;5.00;;;14.50;97.40;;;;;;5032726;28;20478;-81
2022/07/04 04:42:59;;;;;;;9.52;5.38;;;14.50;97.40;;;;;;5015961;28;20044;-81
2022/07/04 04:45:24;;;;;;;7.63;4.22;;;14.50;97.40;;;;;;5032405;28;20059;-82
2022/07/04 04:47:52;;;;;;;10.65;4.40;;;14.50;97.30;;;;;;5033974;28;20032;-82
2022/07/04 04:50:18;;;;;;;6.97;4.20;;;14.50;97.50;;;;;;5032847;28;20029;-82
2022/07/04 04:52:43;;;;;;;9.48;5.28;;;14.50;97.20;;;;;;5032648;28;20056;-81
2022/07/04 04:55:09;;;;;;;7.93;3.88;;;14.60;97.30;;;;;;5033706;28;20036;-81
2022/07/04 04:57:35;;;;;;;9.52;4.65;;;14.60;97.30;;;;;;5016187;28;20037;-81
2022/07/04 05:00:04;;;;;;;6.13;3.40;;;14.60;97.20;;;;;;5032060;28;20034;-80
2022/07/04 05:02:30;;;;;;;7.53;3.85;;;14.60;97.20;;;;;;5031955;28;20037;-80
2022/07/04 05:04:55;;;;;;;6.13;3.25;;;14.70;97.20;;;;;;5016407;28;20148;-80
2022/07/04 05:07:21;;;;;;;7.90;3.47;;;14.70;97.30;;;;;;5037911;28;20037;-81
2022/07/04 05:09:47;;;;;;;8.93;3.75;;;14.80;97.30;;;;;;5036861;28;20026;-81
2022/07/04 05:12:13;;;;;;;6.68;4.18;;;14.80;97.20;;;;;;5036731;28;20029;-81
2022/07/04 05:14:38;;;;;;;6.70;3.63;;;14.80;97.50;;;;;;5036760;28;20371;-81
2022/07/04 05:17:04;;;;;;;7.90;4.10;;;14.80;97.20;;;;;;5020497;28;20033;-81
2022/07/04 05:19:29;;;;;;;7.13;4.05;;;14.80;97.30;;;;;;5021843;28;20033;-80
2022/07/04 05:21:55;;;;;;;8.85;4.32;;;14.90;97.30;;;;;;5040180;28;20033;-80
2022/07/04 05:24:21;;;;;;;13.07;4.95;;;14.90;97.30;;;;;;5032475;28;20049;-80
2022/07/04 05:26:46;;;;;;;7.43;3.78;;;14.90;97.40;;;;;;5025247;28;20068;-80
2022/07/04 05:29:12;;;;;;;9.57;3.92;;;15.00;97.40;;;;;;5036887;28;20548;-82
2022/07/04 05:31:38;;;;;;;8.88;4.00;;;15.00;97.50;;;;;;5035620;28;20026;-82
2022/07/04 05:34:03;;;;;;;6.60;3.67;;;15.10;97.50;;;;;;5020213;28;20045;-82
2022/07/04 05:36:29;;;;;;;9.95;3.88;;;15.10;97.60;;;;;;5013898;28;20029;-82
2022/07/04 05:38:55;;;;;;;6.57;3.35;;;15.10;97.60;;;;;;5028898;28;20033;-82
2022/07/04 05:41:20;;;;;;;8.15;4.18;;;15.20;97.90;;;;;;5026317;28;20022;-80
2022/07/04 05:43:46;;;;;;;10.82;3.90;;;15.30;97.70;;;;;;5012576;28;20042;-81
2022/07/04 05:46:12;;;;;;;9.38;3.80;;;15.30;97.80;;;;;;5008742;28;20022;-81
2022/07/04 05:48:37;;;;;;;6.63;4.10;;;15.40;97.90;;;;;;5006260;28;20470;-80
2022/07/04 05:51:03;;;;;;;8.95;3.47;;;15.50;97.90;;;;;;5018032;28;20038;-80
2022/07/04 05:53:29;;;;;;;9.35;3.35;;;15.50;97.90;;;;;;5014894;28;20367;-80
2022/07/04 05:55:55;;;;;;;8.13;3.20;;;15.50;97.90;;;;;;5021761;28;20036;-80
2022/07/04 05:58:20;;;;;;;10.95;4.15;;;15.60;97.90;;;;;;5024942;28;20030;-81
2022/07/04 06:00:46;;;;;;;10.30;4.25;;;15.60;97.90;;;;;;5024097;28;20129;-81
2022/07/04 06:03:12;;;;;;;6.05;3.08;;;15.70;98.00;;;;;;5025947;28;20029;-81
2022/07/04 06:05:37;;;;;;;7.07;3.28;;;15.70;97.90;;;;;;5024272;28;20477;-80
2022/07/04 06:08:03;;;;;;;6.10;3.53;;;15.70;97.90;;;;;;5003661;28;20026;-83
2022/07/04 06:10:29;;;;;;;10.98;3.63;;;15.80;97.90;;;;;;5034925;28;20056;-82
2022/07/04 06:12:55;;;;;;;7.88;3.20;;;15.90;97.90;;;;;;5018265;28;20120;-82
2022/07/04 06:15:20;;;;;;;8.43;3.65;;;16.00;97.90;;;;;;5018265;28;20032;-84
2022/07/04 06:17:46;;;;;;;6.25;2.97;;;16.10;97.80;;;;;;5018383;28;20026;-83
2022/07/04 06:20:12;;;;;;;6.57;3.13;;;16.20;97.90;;;;;;5018113;28;20044;-84
2022/07/04 06:22:41;;;;;;;7.22;2.55;;;16.20;97.30;;;;;;5018133;28;20037;-82
2022/07/04 06:25:14;;;;;;;7.18;3.13;;;16.40;97.20;;;;;;5034272;28;20049;-84
2022/07/04 06:27:41;;;;;;;7.60;2.83;;;16.50;97.10;;;;;;5035594;28;20527;-83
2022/07/04 06:30:07;;;;;;;6.43;3.42;;;16.60;97.00;;;;;;5034318;28;20112;-82
2022/07/04 06:33:01;;;;;;;6.38;3.28;;;16.70;96.70;;;;;;5017860;28;20496;-81
2022/07/04 06:35:49;;;;;;;8.98;2.78;;;16.80;96.60;;;;;;5035483;28;20467;-82
2022/07/04 06:38:18;;;;;;;7.22;3.05;;;17.00;96.40;;;;;;5020230;28;20428;-83
2022/07/04 06:40:44;;;;;;;8.38;3.10;;;17.10;96.10;;;;;;5034158;28;20049;-83
2022/07/04 06:43:10;;;;;;;5.60;2.60;;;17.20;96.10;;;;;;5034460;28;20021;-82
2022/07/04 06:45:36;;;;;;;5.10;2.33;;;17.40;95.60;;;;;;5035378;28;20036;-83
2022/07/04 06:48:04;;;;;;;5.75;2.70;;;17.50;95.20;;;;;;5035427;28;20017;-81
2022/07/04 06:50:32;;;;;;;8.90;2.55;;;17.50;94.90;;;;;;5035319;28;20520;-80
2022/07/04 06:52:59;;;;;;;8.00;2.95;;;17.60;94.80;;;;;;5033870;28;20024;-81
2022/07/04 06:55:25;;;;;;;8.40;2.75;;;17.60;94.70;;;;;;5017672;28;20029;-80
2022/07/04 06:57:50;;;;;;;7.18;2.60;;;17.70;94.50;;;;;;5018066;28;20246;-79
2022/07/04 07:00:17;;;;;;;6.75;2.47;;;17.70;94.30;;;;;;5028179;28;20034;-80
2022/07/04 07:02:42;;;;;;;8.85;2.95;;;17.70;94.30;;;;;;5022523;28;20386;-81
2022/07/04 07:05:08;;;;;;;7.38;2.63;;;17.80;94.20;;;;;;5013633;28;20054;-81
2022/07/04 07:07:34;;;;;;;11.90;2.80;;;17.90;94.10;;;;;;5031883;28;20424;-80
2022/07/04 07:10:01;;;;;;;9.18;3.03;;;18.00;94.00;;;;;;5037821;28;20043;-81
2022/07/04 07:12:27;;;;;;;9.18;2.88;;;18.10;93.80;;;;;;5034929;28;20026;-80
2022/07/04 07:14:53;;;;;;;6.43;2.45;;;18.10;93.70;;;;;;5032773;28;20033;-80
2022/07/04 07:17:18;;;;;;;6.20;2.42;;;18.30;93.60;;;;;;5016127;28;20029;-82
2022/07/04 07:19:45;;;;;;;8.05;2.78;;;18.40;93.50;;;;;;5008268;28;20481;-81
2022/07/04 07:22:11;;;;;;;10.18;2.55;;;18.50;93.30;;;;;;5031111;28;20370;-81
2022/07/04 07:24:37;;;;;;;5.47;2.10;;;18.50;93.20;;;;;;5000622;28;20050;-81
2022/07/04 07:27:03;;;;;;;8.27;2.70;;;18.60;93.40;;;;;;4999154;28;20536;-81
2022/07/04 07:29:29;;;;;;;8.88;2.95;;;18.70;93.10;;;;;;5013859;28;20113;-81
2022/07/04 07:31:54;;;;;;;8.65;2.63;;;18.90;92.90;;;;;;5027182;28;20430;-82
2022/07/04 07:34:20;;;;;;;7.13;2.92;;;18.90;92.60;;;;;;5028041;28;20478;-82
2022/07/04 07:36:46;;;;;;;10.25;3.92;;;19.00;92.20;;;;;;5014648;28;20073;-81
2022/07/04 07:39:12;;;;;;;12.38;3.65;;;19.00;92.00;;;;;;5003014;28;20482;-82
2022/07/04 07:41:37;;;;;;;10.35;3.63;;;19.00;92.40;;;;;;5011460;28;20067;-81
2022/07/04 07:44:03;;;;;;;9.63;3.17;;;19.00;91.90;;;;;;5016118;28;20033;-84
2022/07/04 07:46:29;;;;;;;11.85;4.43;;;19.10;91.80;;;;;;5011530;28;20061;-83
2022/07/04 07:48:54;;;;;;;12.38;3.83;;;19.00;91.80;;;;;;5017957;28;20074;-83
2022/07/04 07:51:20;;;;;;;15.30;5.72;;;19.00;92.10;;;;;;5034639;28;20378;-81
2022/07/04 07:53:46;;;;;;;9.93;4.32;;;19.00;91.90;;;;;;5012845;28;20029;-81
2022/07/04 07:56:11;;;;;;;7.32;3.63;;;19.00;91.90;;;;;;5006178;28;20108;-75
2022/07/04 07:58:37;;;;;;;8.75;4.55;;;19.00;92.00;;;;;;5007660;28;20072;-74
2022/07/04 08:01:03;;;;;;;12.00;4.32;;;19.00;92.00;;;;;;5020532;28;20414;-75
2022/07/04 08:06:14;;;;;;;10.60;5.00;;;19.10;92.10;;;;;;5019563;28;20079;-75
2022/07/04 08:08:43;;;;;;;11.30;4.78;;;19.10;92.10;;;;;;5020816;28;20112;-75
2022/07/04 08:11:10;;;;;;;13.70;5.95;;;19.20;92.20;;;;;;4999660;28;20022;-75
2022/07/04 08:13:36;;;;;;;11.73;5.10;;;19.30;92.20;;;;;;5031964;28;20493;-76
2022/07/04 08:16:02;;;;;;;12.68;5.68;;;19.40;92.10;;;;;;4993692;28;20121;-75
2022/07/04 08:18:28;;;;;;;15.23;6.63;;;19.40;92.00;;;;;;5007894;28;20125;-75
2022/07/04 08:20:53;;;;;;;12.60;5.63;;;19.50;91.70;;;;;;4995931;28;20072;-75
2022/07/04 08:23:19;;;;;;;11.25;5.00;;;19.60;91.60;;;;;;4995883;28;20371;-75
2022/07/04 08:25:45;;;;;;;9.82;4.85;;;19.60;91.50;;;;;;4995842;28;20053;-74
2022/07/04 08:28:11;;;;;;;10.43;5.97;;;19.60;91.30;;;;;;5019704;28;20014;-75
2022/07/04 08:30:37;;;;;;;16.73;6.05;;;19.70;91.30;;;;;;5013532;28;20467;-77
2022/07/04 08:33:02;;;;;;;12.52;5.13;;;19.80;91.20;;;;;;4996010;28;20478;-77
2022/07/04 08:35:29;;;;;;;12.35;4.53;;;19.80;91.10;;;;;;5012327;28;20029;-74
2022/07/04 08:37:55;;;;;;;12.30;4.95;;;19.90;91.20;;;;;;5012207;28;20538;-74
2022/07/04 08:40:28;;;;;;;9.85;5.53;;;20.10;91.20;;;;;;5009408;28;20437;-76
2022/07/04 08:42:54;;;;;;;12.65;5.85;;;20.20;90.90;;;;;;4991856;28;20096;-75
2022/07/04 08:45:29;;;;;;;8.73;4.18;;;20.30;90.70;;;;;;5006994;28;20422;-75
2022/07/04 08:48:07;;;;;;;8.50;4.05;;;20.50;90.60;;;;;;5021236;28;20026;-75
2022/07/04 08:50:36;;;;;;;11.35;4.35;;;20.50;90.40;;;;;;5022231;28;20021;-77
2022/07/04 08:53:12;;;;;;;10.15;4.10;;;20.60;90.30;;;;;;5002229;28;20513;-76
2022/07/04 08:58:31;;;;;;;10.07;3.88;;;20.60;90.10;;;;;;5013358;28;20389;-75
2022/07/04 09:01:04;;;;;;;12.70;4.70;;;20.60;90.10;;;;;;5012009;28;20029;-76
2022/07/04 09:03:31;;;;;;;11.25;3.95;;;20.70;89.70;;;;;;5021000;28;20280;-76
2022/07/04 09:05:58;;;;;;;10.60;4.82;;;20.60;89.40;;;;;;5006837;28;20033;-76
2022/07/04 09:08:24;;;;;;;16.33;5.20;;;20.60;89.40;;;;;;5021674;28;20081;-76
2022/07/04 09:10:51;;;;;;;8.77;4.38;;;20.60;89.50;;;;;;5020135;28;20437;-76
2022/07/04 09:13:18;;;;;;;9.40;4.07;;;20.70;89.40;;;;;;5006468;28;20382;-76
2022/07/04 09:15:49;;;;;;;14.25;5.00;;;20.80;89.00;;;;;;5004515;28;20116;-76
2022/07/04 09:18:30;;;;;;;13.18;4.00;;;20.90;88.40;;;;;;5025991;28;20025;-75
2022/07/04 09:21:04;;;;;;;8.32;3.50;;;21.00;88.00;;;;;;5012741;28;20041;-75
2022/07/04 09:23:32;;;;;;;9.60;3.58;;;21.00;87.20;;;;;;5021419;28;20022;-76
2022/07/04 09:26:19;;;;;;;11.57;4.30;;;21.10;86.60;;;;;;5003085;28;20057;-75
2022/07/04 09:28:54;;;;;;;8.55;3.15;;;21.10;85.70;;;;;;5023447;28;20021;-76
2022/07/04 09:31:22;;;;;;;12.40;3.88;;;21.20;85.90;;;;;;5021996;28;20022;-76
2022/07/04 09:33:49;;;;;;;13.77;4.10;;;21.30;85.60;;;;;;5021584;28;20101;-76
2022/07/04 09:36:16;;;;;;;14.27;4.65;;;21.40;85.00;;;;;;5017928;28;20057;-76
2022/07/04 09:38:43;;;;;;;9.02;3.20;;;21.50;84.30;;;;;;5011408;28;20029;-76
2022/07/04 09:41:34;;;;;;;7.15;2.28;;;21.40;83.90;;;;;;5012251;28;20108;-75
2022/07/04 09:44:05;;;;;;;10.65;2.33;;;21.50;84.00;;;;;;5023424;28;20124;-76
2022/07/04 09:46:33;;;;;;;6.82;1.77;;;21.60;82.70;;;;;;5030461;28;20639;-77
2022/07/04 09:48:59;;;;;;;6.55;1.52;;;21.60;81.80;;;;;;5004973;28;20032;-75
2022/07/04 09:51:38;;;;;;;4.75;1.38;;;21.60;81.60;;;;;;5032273;28;20116;-75
2022/07/04 09:54:16;;;;;;;4.93;1.30;;;21.70;81.30;;;;;;5023055;28;20377;-76
2022/07/04 09:56:47;;;;;;;7.70;1.45;;;21.70;81.30;;;;;;5016507;28;20033;-76
2022/07/04 09:59:13;;;;;;;9.98;2.00;;;21.80;80.30;;;;;;5033356;28;20040;-76
2022/07/04 10:01:39;;;;;;;4.15;1.38;;;21.80;79.20;;;;;;5034936;28;20030;-76
2022/07/04 10:04:06;;;;;;;6.13;1.70;;;21.80;79.60;;;;;;5027573;28;20398;-75
2022/07/04 10:06:44;;;;;;;6.30;1.77;;;22.00;79.50;;;;;;5029979;28;20045;-75
2022/07/04 10:09:18;;;;;;;8.57;1.90;;;22.10;78.30;;;;;;5016043;28;20032;-76
2022/07/04 10:11:46;;;;;;;5.25;1.50;;;22.20;77.50;;;;;;5016698;28;20518;-76
2022/07/04 10:14:14;;;;;;;8.63;1.90;;;22.30;78.20;;;;;;5016295;28;20045;-76
2022/07/04 10:16:40;;;;;;;5.43;1.58;;;22.40;76.60;;;;;;5015890;28;20417;-76
2022/07/04 10:19:08;;;;;;;7.00;3.05;;;22.50;76.00;;;;;;5007526;28;20033;-76
2022/07/04 10:21:34;;;;;;;7.68;2.55;;;22.60;75.80;;;;;;5034226;28;20083;-77
2022/07/04 10:24:00;;;;;;;5.50;1.70;;;22.80;74.60;;;;;;5017218;28;20041;-76
2022/07/04 10:26:29;;;;;;;7.38;1.40;;;22.90;73.80;;;;;;5035476;28;20052;-75
2022/07/04 10:28:55;;;;;;;5.70;1.90;;;22.90;73.10;;;;;;5035556;28;20017;-75
2022/07/04 10:31:23;;;;;;;4.00;1.23;;;22.90;72.00;;;;;;5035479;28;20359;-75
2022/07/04 10:33:49;;;;;;;4.57;1.05;;;22.80;69.10;;;;;;5028107;28;20356;-75
2022/07/04 10:36:29;;;;;;;3.63;0.93;;;22.70;69.60;;;;;;5014319;28;20501;-76
2022/07/04 10:39:03;;;;;;;6.70;1.13;;;22.60;69.10;;;;;;5014194;28;20040;-76
2022/07/04 10:41:31;;;;;;;5.30;1.20;;;22.50;69.90;;;;;;5014108;28;20028;-75
2022/07/04 10:44:01;;;;;;;4.20;1.30;;;22.30;69.50;;;;;;4998080;28;20475;-76
2022/07/04 10:46:28;;;;;;;4.85;1.48;;;22.20;69.80;;;;;;5014172;28;20548;-75
2022/07/04 10:48:57;;;;;;;3.83;1.40;;;22.20;70.20;;;;;;5019394;28;20025;-76
2022/07/04 10:51:42;;;;;;;4.25;0.90;;;22.20;70.40;;;;;;5033251;28;20422;-76
2022/07/04 10:54:15;;;;;;;4.60;1.17;;;22.30;71.00;;;;;;5030403;28;20080;-80
2022/07/04 10:56:45;;;;;;;4.45;0.80;;;22.50;70.80;;;;;;5022329;28;20137;-76
2022/07/04 10:59:15;;;;;;;4.95;0.90;;;22.70;70.40;;;;;;5013857;28;20496;-76
2022/07/04 11:01:50;;;;;;;4.13;1.08;;;22.70;70.30;;;;;;5014945;28;20258;-86
2022/07/04 11:04:44;;;;;;;3.83;0.60;;;22.70;70.10;;;;;;5013883;28;20391;-85
2022/07/04 11:07:10;;;;;;;3.25;0.77;;;22.80;69.70;;;;;;5014247;28;20441;-83
2022/07/04 11:09:35;;;;;;;2.58;0.63;;;22.90;69.80;;;;;;5013986;28;20046;-84
2022/07/04 11:12:03;;;;;;;3.22;0.70;;;23.00;69.90;;;;;;5005058;28;20275;-85
2022/07/04 11:14:46;;;;;;;2.33;0.60;;;23.10;69.70;;;;;;5027378;28;20018;-85
2022/07/04 11:17:19;;;;;;;4.30;1.13;;;23.30;69.50;;;;;;5014159;28;20445;-86
2022/07/04 11:19:45;;;;;;;2.28;0.60;;;23.40;69.20;;;;;;5028430;28;20053;-83
2022/07/04 11:22:11;;;;;;;3.90;0.80;;;23.70;68.60;;;;;;5033202;28;20043;-84
2022/07/04 11:24:38;;;;;;;4.35;0.73;;;23.90;67.90;;;;;;5021783;28;20050;-85
2022/07/04 11:27:08;;;;;;;4.25;0.60;;;24.10;67.60;;;;;;5013809;28;20030;-85
2022/07/04 11:29:34;;;;;;;2.25;0.60;;;24.30;67.00;;;;;;5024086;28;20022;-85
2022/07/04 11:32:00;;;;;;;2.38;0.50;;;24.40;66.20;;;;;;5033577;28;20104;-85
2022/07/04 11:34:32;;;;;;;3.20;0.60;;;24.40;65.70;;;;;;5002705;28;20057;-86
2022/07/04 11:37:01;;;;;;;3.30;0.70;;;24.50;65.50;;;;;;5020151;28;20071;-85
2022/07/04 11:39:26;;;;;;;2.65;0.40;;;24.60;65.40;;;;;;5033399;28;20044;-87
2022/07/04 11:45:02;;;;;;;2.45;0.50;;;24.80;64.50;;;;;;5025777;28;20070;-85
2022/07/04 11:47:41;;;;;;;4.18;0.60;;;24.90;63.90;;;;;;5012508;28;20029;-86
2022/07/04 11:50:15;;;;;;;2.55;0.45;;;25.00;63.20;;;;;;5032483;28;20062;-83
2022/07/04 11:52:46;;;;;;;3.00;0.65;;;25.20;63.30;;;;;;5034527;28;20033;-86
2022/07/04 11:55:17;;;;;;;1.63;0.47;;;25.30;62.30;;;;;;5024637;28;20033;-86
2022/07/04 11:57:52;;;;;;;2.17;0.52;;;25.40;61.90;;;;;;5032998;28;20079;-86
2022/07/04 12:00:20;;;;;;;1.83;0.60;;;25.40;61.70;;;;;;5033216;28;20121;-86
2022/07/04 12:02:49;;;;;;;2.75;0.65;;;25.40;61.50;;;;;;5032943;28;20036;-84
2022/07/04 12:05:16;;;;;;;4.07;0.50;;;25.40;61.10;;;;;;5032833;28;20028;-85
2022/07/04 12:07:44;;;;;;;1.95;0.60;;;25.50;61.50;;;;;;5032657;28;20112;-84
2022/07/04 12:10:18;;;;;;;2.10;0.47;;;25.70;60.70;;;;;;5033920;28;20025;-83
2022/07/04 12:12:56;;;;;;;2.95;0.60;;;25.90;60.40;;;;;;5033071;28;20381;-84
2022/07/04 12:15:23;;;;;;;1.70;0.50;;;26.20;59.50;;;;;;5033945;28;20104;-84
2022/07/04 12:17:55;;;;;;;3.22;0.80;;;26.30;59.20;;;;;;5003053;28;20421;-83
2022/07/04 12:20:22;;;;;;;3.40;0.57;;;26.60;58.90;;;;;;5014263;28;20029;-84
2022/07/04 12:22:56;;;;;;;2.10;0.47;;;26.60;58.60;;;;;;5012575;28;20025;-85
2022/07/04 12:25:36;;;;;;;1.40;0.40;;;26.90;58.10;;;;;;5013591;28;20522;-85
2022/07/04 12:28:10;;;;;;;4.43;0.43;;;27.10;57.80;;;;;;5012799;28;20022;-86
2022/07/04 12:30:57;;;;;;;1.40;0.43;;;27.40;57.30;;;;;;5013873;28;20029;-84
2022/07/04 12:33:24;;;;;;;2.03;0.40;;;27.50;57.10;;;;;;5012200;28;20034;-85
2022/07/04 12:36:05;;;;;;;2.15;0.40;;;27.70;56.70;;;;;;4996258;28;20022;-83
2022/07/04 12:38:36;;;;;;;1.98;0.50;;;27.90;55.30;;;;;;5012693;28;20037;-86
2022/07/04 12:41:12;;;;;;;1.52;0.40;;;28.20;55.00;;;;;;5015976;28;20468;-85
2022/07/04 12:43:41;;;;;;;1.60;0.50;;;28.40;54.40;;;;;;5033742;28;20049;-86
2022/07/04 12:46:12;;;;;;;1.85;0.40;;;28.50;53.40;;;;;;5033357;28;20040;-85
2022/07/04 12:48:39;;;;;;;3.83;0.55;;;28.70;52.30;;;;;;5032470;28;20014;-85
2022/07/04 12:51:17;;;;;;;2.30;0.40;;;28.90;51.90;;;;;;5032713;28;20442;-86
2022/07/04 12:53:45;;;;;;;0.95;0.30;;;29.10;51.20;;;;;;5032262;28;20025;-86
2022/07/04 12:56:27;;;;;;;2.08;0.50;;;29.30;51.20;;;;;;5020346;28;20091;-85
2022/07/04 12:58:53;;;;;;;1.95;0.30;;;29.40;50.10;;;;;;5026286;28;20116;-85
2022/07/04 13:01:18;;;;;;;3.30;0.50;;;29.50;50.40;;;;;;4996005;28;20093;-84
2022/07/04 13:03:44;;;;;;;2.38;0.50;;;29.70;49.90;;;;;;5030233;28;20036;-86
2022/07/04 13:06:10;;;;;;;0.95;0.30;;;29.80;49.50;;;;;;5014863;28;20034;-86